sensor_id;sensor_type;location;lat;lon;timestamp;temperature;humidity
20803;DHT22;10562;-33.856;151.182;2024-02-21T00:00:54;24.90;99.90
20803;DHT22;10562;-33.856;151.182;2024-02-21T00:03:24;25.00;99.90
20803;DHT22;10562;-33.856;151.182;2024-02-21T00:05:55;25.10;99.90
20803;DHT22;10562;-33.856;151.182;2024-02-21T00:08:26;25.10;99.90
20803;DHT22;10562;-33.856;151.182;2024-02-21T00:10:57;25.30;99.90
20803;DHT22;10562;-33.856;151.182;2024-02-21T00:13:30;25.40;99.90
20803;DHT22;10562;-33.856;151.182;2024-02-21T00:16:02;25.70;99.90
20803;DHT22;10562;-33.856;151.182;2024-02-21T00:18:32;26.10;99.90
20803;DHT22;10562;-33.856;151.182;2024-02-21T00:21:03;26.40;99.90
20803;DHT22;10562;-33.856;151.182;2024-02-21T00:23:37;26.50;99.90
20803;DHT22;10562;-33.856;151.182;2024-02-21T00:26:08;26.70;99.90
20803;DHT22;10562;-33.856;151.182;2024-02-21T00:28:41;27.00;99.90
20803;DHT22;10562;-33.856;151.182;2024-02-21T00:31:12;27.20;99.90
20803;DHT22;10562;-33.856;151.182;2024-02-21T00:33:44;27.20;99.90
20803;DHT22;10562;-33.856;151.182;2024-02-21T00:36:15;27.10;99.90
20803;DHT22;10562;-33.856;151.182;2024-02-21T00:38:47;27.10;99.90
20803;DHT22;10562;-33.856;151.182;2024-02-21T00:41:17;27.10;99.90
20803;DHT22;10562;-33.856;151.182;2024-02-21T00:43:50;27.00;99.90
20803;DHT22;10562;-33.856;151.182;2024-02-21T00:46:21;26.90;99.90
20803;DHT22;10562;-33.856;151.182;2024-02-21T00:48:52;26.90;99.90
20803;DHT22;10562;-33.856;151.182;2024-02-21T00:51:23;26.90;99.90
20803;DHT22;10562;-33.856;151.182;2024-02-21T00:53:54;27.00;99.90
20803;DHT22;10562;-33.856;151.182;2024-02-21T00:56:25;27.10;99.90
20803;DHT22;10562;-33.856;151.182;2024-02-21T00:58:57;27.20;99.90
20803;DHT22;10562;-33.856;151.182;2024-02-21T01:01:28;27.20;99.90
20803;DHT22;10562;-33.856;151.182;2024-02-21T01:03:59;27.20;99.90
20803;DHT22;10562;-33.856;151.182;2024-02-21T01:06:30;27.20;99.90
20803;DHT22;10562;-33.856;151.182;2024-02-21T01:09:00;27.10;99.90
20803;DHT22;10562;-33.856;151.182;2024-02-21T01:11:31;27.00;99.90
20803;DHT22;10562;-33.856;151.182;2024-02-21T01:14:04;27.00;99.90
20803;DHT22;10562;-33.856;151.182;2024-02-21T01:16:35;26.80;99.90
20803;DHT22;10562;-33.856;151.182;2024-02-21T01:19:09;26.70;99.90
20803;DHT22;10562;-33.856;151.182;2024-02-21T01:21:40;26.60;99.90
20803;DHT22;10562;-33.856;151.182;2024-02-21T01:24:11;26.60;99.90
20803;DHT22;10562;-33.856;151.182;2024-02-21T01:26:42;26.60;99.90
20803;DHT22;10562;-33.856;151.182;2024-02-21T01:29:16;26.50;99.90
20803;DHT22;10562;-33.856;151.182;2024-02-21T01:31:47;26.60;99.90
20803;DHT22;10562;-33.856;151.182;2024-02-21T01:34:18;26.60;99.90
20803;DHT22;10562;-33.856;151.182;2024-02-21T01:36:49;26.60;99.90
20803;DHT22;10562;-33.856;151.182;2024-02-21T01:39:20;26.70;99.90
20803;DHT22;10562;-33.856;151.182;2024-02-21T01:41:51;26.80;99.90
20803;DHT22;10562;-33.856;151.182;2024-02-21T01:44:24;26.90;99.90
20803;DHT22;10562;-33.856;151.182;2024-02-21T01:46:54;26.90;99.90
20803;DHT22;10562;-33.856;151.182;2024-02-21T01:49:25;26.90;99.90
20803;DHT22;10562;-33.856;151.182;2024-02-21T01:51:59;27.10;99.90
20803;DHT22;10562;-33.856;151.182;2024-02-21T01:54:31;27.10;99.90
20803;DHT22;10562;-33.856;151.182;2024-02-21T01:57:02;27.30;99.90
20803;DHT22;10562;-33.856;151.182;2024-02-21T01:59:35;27.40;99.90
20803;DHT22;10562;-33.856;151.182;2024-02-21T02:02:06;27.40;99.90
20803;DHT22;10562;-33.856;151.182;2024-02-21T02:04:39;27.30;99.90
20803;DHT22;10562;-33.856;151.182;2024-02-21T02:07:10;27.30;99.90
20803;DHT22;10562;-33.856;151.182;2024-02-21T02:09:41;27.50;99.90
20803;DHT22;10562;-33.856;151.182;2024-02-21T02:12:12;27.60;99.90
20803;DHT22;10562;-33.856;151.182;2024-02-21T02:14:45;27.80;99.90
20803;DHT22;10562;-33.856;151.182;2024-02-21T02:17:15;27.90;99.90
20803;DHT22;10562;-33.856;151.182;2024-02-21T02:19:47;27.90;99.90
20803;DHT22;10562;-33.856;151.182;2024-02-21T02:22:22;28.00;99.90
20803;DHT22;10562;-33.856;151.182;2024-02-21T02:24:55;28.20;99.90
20803;DHT22;10562;-33.856;151.182;2024-02-21T02:27:25;28.30;99.90
20803;DHT22;10562;-33.856;151.182;2024-02-21T02:29:56;28.20;99.90
20803;DHT22;10562;-33.856;151.182;2024-02-21T02:32:27;28.30;99.90
20803;DHT22;10562;-33.856;151.182;2024-02-21T02:34:58;28.30;99.90
20803;DHT22;10562;-33.856;151.182;2024-02-21T02:37:28;28.40;99.90
20803;DHT22;10562;-33.856;151.182;2024-02-21T02:40:05;28.60;99.90
20803;DHT22;10562;-33.856;151.182;2024-02-21T02:42:36;28.80;99.90
20803;DHT22;10562;-33.856;151.182;2024-02-21T02:45:07;28.90;99.90
20803;DHT22;10562;-33.856;151.182;2024-02-21T02:47:40;28.90;99.90
20803;DHT22;10562;-33.856;151.182;2024-02-21T02:50:11;28.80;99.90
20803;DHT22;10562;-33.856;151.182;2024-02-21T02:52:43;28.90;99.90
20803;DHT22;10562;-33.856;151.182;2024-02-21T02:55:15;28.90;99.90
20803;DHT22;10562;-33.856;151.182;2024-02-21T02:57:46;29.10;99.90
20803;DHT22;10562;-33.856;151.182;2024-02-21T03:00:17;29.30;99.90
20803;DHT22;10562;-33.856;151.182;2024-02-21T03:02:49;29.50;99.90
20803;DHT22;10562;-33.856;151.182;2024-02-21T03:05:20;29.50;99.90
20803;DHT22;10562;-33.856;151.182;2024-02-21T03:07:52;29.50;99.90
20803;DHT22;10562;-33.856;151.182;2024-02-21T03:10:25;29.50;99.90
20803;DHT22;10562;-33.856;151.182;2024-02-21T03:12:56;29.50;99.90
20803;DHT22;10562;-33.856;151.182;2024-02-21T03:15:27;29.70;99.90
20803;DHT22;10562;-33.856;151.182;2024-02-21T03:17:58;29.80;99.90
20803;DHT22;10562;-33.856;151.182;2024-02-21T03:20:28;29.70;99.90
20803;DHT22;10562;-33.856;151.182;2024-02-21T03:23:00;29.90;99.90
20803;DHT22;10562;-33.856;151.182;2024-02-21T03:25:32;30.00;99.90
20803;DHT22;10562;-33.856;151.182;2024-02-21T03:28:04;30.10;99.90
20803;DHT22;10562;-33.856;151.182;2024-02-21T03:30:35;30.30;99.90
20803;DHT22;10562;-33.856;151.182;2024-02-21T03:33:06;30.30;99.90
20803;DHT22;10562;-33.856;151.182;2024-02-21T03:35:36;30.00;99.90
20803;DHT22;10562;-33.856;151.182;2024-02-21T03:38:07;29.90;99.90
20803;DHT22;10562;-33.856;151.182;2024-02-21T03:40:40;29.50;99.90
20803;DHT22;10562;-33.856;151.182;2024-02-21T03:43:10;29.20;99.90
20803;DHT22;10562;-33.856;151.182;2024-02-21T03:45:41;29.00;99.90
20803;DHT22;10562;-33.856;151.182;2024-02-21T03:48:12;28.90;99.90
20803;DHT22;10562;-33.856;151.182;2024-02-21T03:50:44;28.80;99.90
20803;DHT22;10562;-33.856;151.182;2024-02-21T03:53:15;28.80;99.90
20803;DHT22;10562;-33.856;151.182;2024-02-21T03:55:48;28.80;99.90
20803;DHT22;10562;-33.856;151.182;2024-02-21T03:58:18;28.80;99.90
20803;DHT22;10562;-33.856;151.182;2024-02-21T04:00:49;29.00;99.90
20803;DHT22;10562;-33.856;151.182;2024-02-21T04:03:21;29.40;99.90
20803;DHT22;10562;-33.856;151.182;2024-02-21T04:05:52;29.70;99.90
20803;DHT22;10562;-33.856;151.182;2024-02-21T04:08:23;29.80;99.90
20803;DHT22;10562;-33.856;151.182;2024-02-21T04:10:57;29.90;99.90
20803;DHT22;10562;-33.856;151.182;2024-02-21T04:13:27;29.80;99.90
20803;DHT22;10562;-33.856;151.182;2024-02-21T04:15:58;29.60;99.90
20803;DHT22;10562;-33.856;151.182;2024-02-21T04:18:29;29.40;99.90
20803;DHT22;10562;-33.856;151.182;2024-02-21T04:21:00;29.30;99.90
20803;DHT22;10562;-33.856;151.182;2024-02-21T04:23:31;29.20;99.90
20803;DHT22;10562;-33.856;151.182;2024-02-21T04:26:03;29.10;99.90
20803;DHT22;10562;-33.856;151.182;2024-02-21T04:28:34;28.90;99.90
20803;DHT22;10562;-33.856;151.182;2024-02-21T04:31:06;29.10;99.90
20803;DHT22;10562;-33.856;151.182;2024-02-21T04:33:37;29.30;99.90
20803;DHT22;10562;-33.856;151.182;2024-02-21T04:36:08;29.60;99.90
20803;DHT22;10562;-33.856;151.182;2024-02-21T04:38:39;29.90;99.90
20803;DHT22;10562;-33.856;151.182;2024-02-21T04:41:12;30.50;99.90
20803;DHT22;10562;-33.856;151.182;2024-02-21T04:43:43;30.80;99.90
20803;DHT22;10562;-33.856;151.182;2024-02-21T04:46:14;30.90;99.90
20803;DHT22;10562;-33.856;151.182;2024-02-21T04:48:45;30.80;99.90
20803;DHT22;10562;-33.856;151.182;2024-02-21T04:51:15;30.70;99.90
20803;DHT22;10562;-33.856;151.182;2024-02-21T04:53:46;30.50;99.90
20803;DHT22;10562;-33.856;151.182;2024-02-21T04:56:19;30.50;99.90
20803;DHT22;10562;-33.856;151.182;2024-02-21T04:58:50;31.00;99.90
20803;DHT22;10562;-33.856;151.182;2024-02-21T05:01:21;31.30;99.90
20803;DHT22;10562;-33.856;151.182;2024-02-21T05:03:52;31.70;99.90
20803;DHT22;10562;-33.856;151.182;2024-02-21T05:06:23;32.10;99.90
20803;DHT22;10562;-33.856;151.182;2024-02-21T05:08:54;32.30;99.90
20803;DHT22;10562;-33.856;151.182;2024-02-21T05:11:27;32.40;99.90
20803;DHT22;10562;-33.856;151.182;2024-02-21T05:13:58;32.30;99.90
20803;DHT22;10562;-33.856;151.182;2024-02-21T05:16:29;32.20;99.90
20803;DHT22;10562;-33.856;151.182;2024-02-21T05:19:00;32.00;99.90
20803;DHT22;10562;-33.856;151.182;2024-02-21T05:21:32;32.00;99.90
20803;DHT22;10562;-33.856;151.182;2024-02-21T05:24:02;31.50;99.90
20803;DHT22;10562;-33.856;151.182;2024-02-21T05:26:35;31.20;99.90
20803;DHT22;10562;-33.856;151.182;2024-02-21T05:29:06;30.70;99.90
20803;DHT22;10562;-33.856;151.182;2024-02-21T05:31:56;30.60;99.90
20803;DHT22;10562;-33.856;151.182;2024-02-21T05:34:27;30.80;99.90
20803;DHT22;10562;-33.856;151.182;2024-02-21T05:36:58;31.10;99.90
20803;DHT22;10562;-33.856;151.182;2024-02-21T05:39:29;31.20;99.90
20803;DHT22;10562;-33.856;151.182;2024-02-21T05:42:01;30.80;99.90
20803;DHT22;10562;-33.856;151.182;2024-02-21T05:44:32;30.50;99.90
20803;DHT22;10562;-33.856;151.182;2024-02-21T05:47:03;30.00;99.90
20803;DHT22;10562;-33.856;151.182;2024-02-21T05:49:37;29.70;99.90
20803;DHT22;10562;-33.856;151.182;2024-02-21T05:52:08;29.30;99.90
20803;DHT22;10562;-33.856;151.182;2024-02-21T05:54:39;29.20;99.90
20803;DHT22;10562;-33.856;151.182;2024-02-21T05:57:13;29.40;99.90
20803;DHT22;10562;-33.856;151.182;2024-02-21T05:59:44;29.70;99.90
20803;DHT22;10562;-33.856;151.182;2024-02-21T06:02:15;30.00;99.90
20803;DHT22;10562;-33.856;151.182;2024-02-21T06:04:45;30.00;99.90
20803;DHT22;10562;-33.856;151.182;2024-02-21T06:07:16;29.70;99.90
20803;DHT22;10562;-33.856;151.182;2024-02-21T06:09:47;29.50;99.90
20803;DHT22;10562;-33.856;151.182;2024-02-21T06:12:20;29.50;99.90
20803;DHT22;10562;-33.856;151.182;2024-02-21T06:14:50;29.80;99.90
20803;DHT22;10562;-33.856;151.182;2024-02-21T06:17:21;30.00;99.90
20803;DHT22;10562;-33.856;151.182;2024-02-21T06:19:52;30.00;99.90
20803;DHT22;10562;-33.856;151.182;2024-02-21T06:22:23;30.00;99.90
20803;DHT22;10562;-33.856;151.182;2024-02-21T06:24:54;30.00;99.90
20803;DHT22;10562;-33.856;151.182;2024-02-21T06:27:26;30.20;99.90
20803;DHT22;10562;-33.856;151.182;2024-02-21T06:29:57;30.00;99.90
20803;DHT22;10562;-33.856;151.182;2024-02-21T06:32:28;29.70;99.90
20803;DHT22;10562;-33.856;151.182;2024-02-21T06:34:59;29.40;99.90
20803;DHT22;10562;-33.856;151.182;2024-02-21T06:37:31;29.10;99.90
20803;DHT22;10562;-33.856;151.182;2024-02-21T06:40:02;28.70;99.90
20803;DHT22;10562;-33.856;151.182;2024-02-21T06:42:34;28.40;99.90
20803;DHT22;10562;-33.856;151.182;2024-02-21T06:45:06;28.20;99.90
20803;DHT22;10562;-33.856;151.182;2024-02-21T06:47:37;28.00;99.90
20803;DHT22;10562;-33.856;151.182;2024-02-21T06:50:10;27.90;99.90
20803;DHT22;10562;-33.856;151.182;2024-02-21T06:52:41;27.80;99.90
20803;DHT22;10562;-33.856;151.182;2024-02-21T06:55:12;27.60;99.90
20803;DHT22;10562;-33.856;151.182;2024-02-21T06:57:44;27.50;99.90
20803;DHT22;10562;-33.856;151.182;2024-02-21T07:00:16;27.40;99.90
20803;DHT22;10562;-33.856;151.182;2024-02-21T07:02:48;27.30;99.90
20803;DHT22;10562;-33.856;151.182;2024-02-21T07:05:19;27.10;99.90
20803;DHT22;10562;-33.856;151.182;2024-02-21T07:07:50;27.10;99.90
20803;DHT22;10562;-33.856;151.182;2024-02-21T07:10:20;27.00;99.90
20803;DHT22;10562;-33.856;151.182;2024-02-21T07:12:53;26.90;99.90
20803;DHT22;10562;-33.856;151.182;2024-02-21T07:15:24;26.80;99.90
20803;DHT22;10562;-33.856;151.182;2024-02-21T07:17:57;26.80;99.90
20803;DHT22;10562;-33.856;151.182;2024-02-21T07:20:28;26.70;99.90
20803;DHT22;10562;-33.856;151.182;2024-02-21T07:22:59;26.60;99.90
20803;DHT22;10562;-33.856;151.182;2024-02-21T07:25:29;26.60;99.90
20803;DHT22;10562;-33.856;151.182;2024-02-21T07:28:02;26.40;99.90
20803;DHT22;10562;-33.856;151.182;2024-02-21T07:30:33;26.30;99.90
20803;DHT22;10562;-33.856;151.182;2024-02-21T07:33:04;26.20;99.90
20803;DHT22;10562;-33.856;151.182;2024-02-21T07:35:35;26.20;99.90
20803;DHT22;10562;-33.856;151.182;2024-02-21T07:38:08;26.10;99.90
20803;DHT22;10562;-33.856;151.182;2024-02-21T07:40:40;26.00;99.90
20803;DHT22;10562;-33.856;151.182;2024-02-21T07:43:12;25.90;99.90
20803;DHT22;10562;-33.856;151.182;2024-02-21T07:45:43;25.90;99.90
20803;DHT22;10562;-33.856;151.182;2024-02-21T07:48:14;25.90;99.90
20803;DHT22;10562;-33.856;151.182;2024-02-21T07:50:46;26.00;99.90
20803;DHT22;10562;-33.856;151.182;2024-02-21T07:53:17;26.00;99.90
20803;DHT22;10562;-33.856;151.182;2024-02-21T07:55:48;25.90;99.90
20803;DHT22;10562;-33.856;151.182;2024-02-21T07:58:20;25.80;99.90
20803;DHT22;10562;-33.856;151.182;2024-02-21T08:00:51;25.60;99.90
20803;DHT22;10562;-33.856;151.182;2024-02-21T08:03:22;25.40;99.90
20803;DHT22;10562;-33.856;151.182;2024-02-21T08:05:53;25.30;99.90
20803;DHT22;10562;-33.856;151.182;2024-02-21T08:08:24;25.20;99.90
20803;DHT22;10562;-33.856;151.182;2024-02-21T08:10:55;25.00;99.90
20803;DHT22;10562;-33.856;151.182;2024-02-21T08:13:27;24.90;99.90
20803;DHT22;10562;-33.856;151.182;2024-02-21T08:15:58;24.90;99.90
20803;DHT22;10562;-33.856;151.182;2024-02-21T08:18:29;24.80;99.90
20803;DHT22;10562;-33.856;151.182;2024-02-21T08:21:00;24.80;99.90
20803;DHT22;10562;-33.856;151.182;2024-02-21T08:23:30;24.70;99.90
20803;DHT22;10562;-33.856;151.182;2024-02-21T08:26:04;24.60;99.90
20803;DHT22;10562;-33.856;151.182;2024-02-21T08:28:37;24.50;99.90
20803;DHT22;10562;-33.856;151.182;2024-02-21T08:31:07;24.50;99.90
20803;DHT22;10562;-33.856;151.182;2024-02-21T08:33:38;24.30;99.90
20803;DHT22;10562;-33.856;151.182;2024-02-21T08:36:10;24.30;99.90
20803;DHT22;10562;-33.856;151.182;2024-02-21T08:38:47;24.20;99.90
20803;DHT22;10562;-33.856;151.182;2024-02-21T08:41:18;24.10;99.90
20803;DHT22;10562;-33.856;151.182;2024-02-21T08:43:53;24.20;99.90
20803;DHT22;10562;-33.856;151.182;2024-02-21T08:46:24;24.20;99.90
20803;DHT22;10562;-33.856;151.182;2024-02-21T08:48:55;24.10;99.90
20803;DHT22;10562;-33.856;151.182;2024-02-21T08:51:25;24.10;99.90
20803;DHT22;10562;-33.856;151.182;2024-02-21T08:53:56;24.10;99.90
20803;DHT22;10562;-33.856;151.182;2024-02-21T08:56:30;24.10;99.90
20803;DHT22;10562;-33.856;151.182;2024-02-21T08:59:04;24.00;99.90
20803;DHT22;10562;-33.856;151.182;2024-02-21T09:01:35;24.00;99.90
20803;DHT22;10562;-33.856;151.182;2024-02-21T09:04:06;23.90;99.90
20803;DHT22;10562;-33.856;151.182;2024-02-21T09:06:37;23.90;99.90
20803;DHT22;10562;-33.856;151.182;2024-02-21T09:09:10;23.80;99.90
20803;DHT22;10562;-33.856;151.182;2024-02-21T09:11:41;23.80;99.90
20803;DHT22;10562;-33.856;151.182;2024-02-21T09:14:14;23.70;99.90
20803;DHT22;10562;-33.856;151.182;2024-02-21T09:16:44;23.70;99.90
20803;DHT22;10562;-33.856;151.182;2024-02-21T09:19:15;23.70;99.90
20803;DHT22;10562;-33.856;151.182;2024-02-21T09:21:46;23.70;99.90
20803;DHT22;10562;-33.856;151.182;2024-02-21T09:24:17;23.70;99.90
20803;DHT22;10562;-33.856;151.182;2024-02-21T09:26:48;23.70;99.90
20803;DHT22;10562;-33.856;151.182;2024-02-21T09:29:21;23.60;99.90
20803;DHT22;10562;-33.856;151.182;2024-02-21T09:31:52;23.60;99.90
20803;DHT22;10562;-33.856;151.182;2024-02-21T09:34:23;23.60;99.90
20803;DHT22;10562;-33.856;151.182;2024-02-21T09:36:55;23.50;99.90
20803;DHT22;10562;-33.856;151.182;2024-02-21T09:39:26;23.60;99.90
20803;DHT22;10562;-33.856;151.182;2024-02-21T09:42:02;23.60;99.90
20803;DHT22;10562;-33.856;151.182;2024-02-21T09:44:38;23.60;99.90
20803;DHT22;10562;-33.856;151.182;2024-02-21T09:47:16;23.70;99.90
20803;DHT22;10562;-33.856;151.182;2024-02-21T09:49:48;23.70;99.90
20803;DHT22;10562;-33.856;151.182;2024-02-21T09:52:20;23.80;99.90
20803;DHT22;10562;-33.856;151.182;2024-02-21T09:54:53;23.80;99.90
20803;DHT22;10562;-33.856;151.182;2024-02-21T09:57:24;23.90;99.90
20803;DHT22;10562;-33.856;151.182;2024-02-21T09:59:58;23.90;99.90
20803;DHT22;10562;-33.856;151.182;2024-02-21T10:02:35;23.90;99.90
20803;DHT22;10562;-33.856;151.182;2024-02-21T10:05:06;23.90;99.90
20803;DHT22;10562;-33.856;151.182;2024-02-21T10:07:38;23.90;99.90
20803;DHT22;10562;-33.856;151.182;2024-02-21T10:10:09;23.80;99.90
20803;DHT22;10562;-33.856;151.182;2024-02-21T10:12:49;23.80;99.90
20803;DHT22;10562;-33.856;151.182;2024-02-21T10:15:24;23.80;99.90
20803;DHT22;10562;-33.856;151.182;2024-02-21T10:18:00;23.60;99.90
20803;DHT22;10562;-33.856;151.182;2024-02-21T10:20:31;23.60;99.90
20803;DHT22;10562;-33.856;151.182;2024-02-21T10:23:02;23.60;99.90
20803;DHT22;10562;-33.856;151.182;2024-02-21T10:25:36;23.60;99.90
20803;DHT22;10562;-33.856;151.182;2024-02-21T10:28:13;23.60;99.90
20803;DHT22;10562;-33.856;151.182;2024-02-21T10:30:53;23.60;99.90
20803;DHT22;10562;-33.856;151.182;2024-02-21T10:33:24;23.60;99.90
20803;DHT22;10562;-33.856;151.182;2024-02-21T10:36:05;23.70;99.90
20803;DHT22;10562;-33.856;151.182;2024-02-21T10:38:37;23.70;99.90
20803;DHT22;10562;-33.856;151.182;2024-02-21T10:41:08;23.70;99.90
20803;DHT22;10562;-33.856;151.182;2024-02-21T10:43:46;23.60;99.90
20803;DHT22;10562;-33.856;151.182;2024-02-21T10:46:24;23.60;99.90
20803;DHT22;10562;-33.856;151.182;2024-02-21T10:49:03;23.60;99.90
20803;DHT22;10562;-33.856;151.182;2024-02-21T10:51:40;23.50;99.90
20803;DHT22;10562;-33.856;151.182;2024-02-21T10:56:48;23.40;99.90
20803;DHT22;10562;-33.856;151.182;2024-02-21T10:59:21;23.40;99.90
20803;DHT22;10562;-33.856;151.182;2024-02-21T11:01:56;23.40;99.90
20803;DHT22;10562;-33.856;151.182;2024-02-21T11:04:27;23.40;99.90
20803;DHT22;10562;-33.856;151.182;2024-02-21T11:06:58;23.40;99.90
20803;DHT22;10562;-33.856;151.182;2024-02-21T11:09:32;23.30;99.90
20803;DHT22;10562;-33.856;151.182;2024-02-21T11:12:04;23.30;99.90
20803;DHT22;10562;-33.856;151.182;2024-02-21T11:14:39;23.30;99.90
20803;DHT22;10562;-33.856;151.182;2024-02-21T11:17:22;23.30;99.90
20803;DHT22;10562;-33.856;151.182;2024-02-21T11:19:54;23.30;99.90
20803;DHT22;10562;-33.856;151.182;2024-02-21T11:22:25;23.20;99.90
20803;DHT22;10562;-33.856;151.182;2024-02-21T11:25:07;23.20;99.90
20803;DHT22;10562;-33.856;151.182;2024-02-21T11:27:39;23.20;99.90
20803;DHT22;10562;-33.856;151.182;2024-02-21T11:30:15;23.20;99.90
20803;DHT22;10562;-33.856;151.182;2024-02-21T11:33:02;23.20;99.90
20803;DHT22;10562;-33.856;151.182;2024-02-21T11:35:34;23.10;99.90
20803;DHT22;10562;-33.856;151.182;2024-02-21T11:38:11;23.10;99.90
20803;DHT22;10562;-33.856;151.182;2024-02-21T11:40:45;23.10;99.90
20803;DHT22;10562;-33.856;151.182;2024-02-21T11:43:16;23.10;99.90
20803;DHT22;10562;-33.856;151.182;2024-02-21T11:45:47;23.10;99.90
20803;DHT22;10562;-33.856;151.182;2024-02-21T11:48:21;23.10;99.90
20803;DHT22;10562;-33.856;151.182;2024-02-21T11:50:55;23.10;99.90
20803;DHT22;10562;-33.856;151.182;2024-02-21T11:53:25;23.00;99.90
20803;DHT22;10562;-33.856;151.182;2024-02-21T11:55:58;23.10;99.90
20803;DHT22;10562;-33.856;151.182;2024-02-21T11:58:29;23.10;99.90
20803;DHT22;10562;-33.856;151.182;2024-02-21T12:01:00;23.10;99.90
20803;DHT22;10562;-33.856;151.182;2024-02-21T12:03:32;23.10;99.90
20803;DHT22;10562;-33.856;151.182;2024-02-21T12:06:04;23.10;99.90
20803;DHT22;10562;-33.856;151.182;2024-02-21T12:08:45;23.20;99.90
20803;DHT22;10562;-33.856;151.182;2024-02-21T12:11:23;23.30;99.90
20803;DHT22;10562;-33.856;151.182;2024-02-21T12:14:02;23.30;99.90
20803;DHT22;10562;-33.856;151.182;2024-02-21T12:16:34;23.40;99.90
20803;DHT22;10562;-33.856;151.182;2024-02-21T12:19:08;23.40;99.90
20803;DHT22;10562;-33.856;151.182;2024-02-21T12:21:40;23.40;99.90
20803;DHT22;10562;-33.856;151.182;2024-02-21T12:24:17;23.40;99.90
20803;DHT22;10562;-33.856;151.182;2024-02-21T12:26:48;23.30;99.90
20803;DHT22;10562;-33.856;151.182;2024-02-21T12:29:20;23.30;99.90
20803;DHT22;10562;-33.856;151.182;2024-02-21T12:31:51;23.30;99.90
20803;DHT22;10562;-33.856;151.182;2024-02-21T12:34:24;23.20;99.90
20803;DHT22;10562;-33.856;151.182;2024-02-21T12:36:55;23.20;99.90
20803;DHT22;10562;-33.856;151.182;2024-02-21T12:39:26;23.10;99.90
20803;DHT22;10562;-33.856;151.182;2024-02-21T12:41:57;23.10;99.90
20803;DHT22;10562;-33.856;151.182;2024-02-21T12:44:28;23.00;99.90
20803;DHT22;10562;-33.856;151.182;2024-02-21T12:46:59;22.90;99.90
20803;DHT22;10562;-33.856;151.182;2024-02-21T12:49:32;22.90;99.90
20803;DHT22;10562;-33.856;151.182;2024-02-21T12:52:03;22.90;99.90
20803;DHT22;10562;-33.856;151.182;2024-02-21T12:54:34;22.80;99.90
20803;DHT22;10562;-33.856;151.182;2024-02-21T12:57:04;22.80;99.90
20803;DHT22;10562;-33.856;151.182;2024-02-21T12:59:35;22.80;99.90
20803;DHT22;10562;-33.856;151.182;2024-02-21T13:02:06;22.80;99.90
20803;DHT22;10562;-33.856;151.182;2024-02-21T13:04:39;22.80;99.90
20803;DHT22;10562;-33.856;151.182;2024-02-21T13:07:10;22.80;99.90
20803;DHT22;10562;-33.856;151.182;2024-02-21T13:09:41;22.70;99.90
20803;DHT22;10562;-33.856;151.182;2024-02-21T13:12:12;22.80;99.90
20803;DHT22;10562;-33.856;151.182;2024-02-21T13:14:42;22.80;99.90
20803;DHT22;10562;-33.856;151.182;2024-02-21T13:17:13;22.70;99.90
20803;DHT22;10562;-33.856;151.182;2024-02-21T13:19:46;22.70;99.90
20803;DHT22;10562;-33.856;151.182;2024-02-21T13:22:17;22.70;99.90
20803;DHT22;10562;-33.856;151.182;2024-02-21T13:24:50;22.70;99.90
20803;DHT22;10562;-33.856;151.182;2024-02-21T13:27:20;22.70;99.90
20803;DHT22;10562;-33.856;151.182;2024-02-21T13:29:51;22.70;99.90
20803;DHT22;10562;-33.856;151.182;2024-02-21T13:32:22;22.70;99.90
20803;DHT22;10562;-33.856;151.182;2024-02-21T13:34:55;22.70;99.90
20803;DHT22;10562;-33.856;151.182;2024-02-21T13:37:28;22.60;99.90
20803;DHT22;10562;-33.856;151.182;2024-02-21T13:39:59;22.60;99.90
20803;DHT22;10562;-33.856;151.182;2024-02-21T13:42:31;22.50;99.90
20803;DHT22;10562;-33.856;151.182;2024-02-21T13:45:02;22.50;99.90
20803;DHT22;10562;-33.856;151.182;2024-02-21T13:47:34;22.50;99.90
20803;DHT22;10562;-33.856;151.182;2024-02-21T13:50:09;22.60;99.90
20803;DHT22;10562;-33.856;151.182;2024-02-21T13:52:39;22.50;99.90
20803;DHT22;10562;-33.856;151.182;2024-02-21T13:55:10;22.50;99.90
20803;DHT22;10562;-33.856;151.182;2024-02-21T13:57:41;22.50;99.90
20803;DHT22;10562;-33.856;151.182;2024-02-21T14:00:13;22.50;99.90
20803;DHT22;10562;-33.856;151.182;2024-02-21T14:02:43;22.50;99.90
20803;DHT22;10562;-33.856;151.182;2024-02-21T14:05:16;22.40;99.90
20803;DHT22;10562;-33.856;151.182;2024-02-21T14:07:47;22.40;99.90
20803;DHT22;10562;-33.856;151.182;2024-02-21T14:10:18;22.30;99.90
20803;DHT22;10562;-33.856;151.182;2024-02-21T14:12:49;22.30;99.90
20803;DHT22;10562;-33.856;151.182;2024-02-21T14:15:19;22.30;99.90
20803;DHT22;10562;-33.856;151.182;2024-02-21T14:17:50;22.20;99.90
20803;DHT22;10562;-33.856;151.182;2024-02-21T14:20:23;22.30;99.90
20803;DHT22;10562;-33.856;151.182;2024-02-21T14:22:54;22.30;99.90
20803;DHT22;10562;-33.856;151.182;2024-02-21T14:25:24;22.30;99.90
20803;DHT22;10562;-33.856;151.182;2024-02-21T14:27:55;22.30;99.90
20803;DHT22;10562;-33.856;151.182;2024-02-21T14:30:27;22.20;99.90
20803;DHT22;10562;-33.856;151.182;2024-02-21T14:32:58;22.20;99.90
20803;DHT22;10562;-33.856;151.182;2024-02-21T14:35:31;22.20;99.90
20803;DHT22;10562;-33.856;151.182;2024-02-21T14:38:02;22.30;99.90
20803;DHT22;10562;-33.856;151.182;2024-02-21T14:40:32;22.30;99.90
20803;DHT22;10562;-33.856;151.182;2024-02-21T14:43:03;22.20;99.90
20803;DHT22;10562;-33.856;151.182;2024-02-21T14:45:34;22.20;99.90
20803;DHT22;10562;-33.856;151.182;2024-02-21T14:48:06;22.10;99.90
20803;DHT22;10562;-33.856;151.182;2024-02-21T14:50:39;22.20;99.90
20803;DHT22;10562;-33.856;151.182;2024-02-21T14:53:09;22.20;99.90
20803;DHT22;10562;-33.856;151.182;2024-02-21T14:55:40;22.20;99.90
20803;DHT22;10562;-33.856;151.182;2024-02-21T14:58:11;22.10;99.90
20803;DHT22;10562;-33.856;151.182;2024-02-21T15:00:43;22.10;99.90
20803;DHT22;10562;-33.856;151.182;2024-02-21T15:03:15;22.10;99.90
20803;DHT22;10562;-33.856;151.182;2024-02-21T15:05:49;22.10;99.90
20803;DHT22;10562;-33.856;151.182;2024-02-21T15:08:19;22.10;99.90
20803;DHT22;10562;-33.856;151.182;2024-02-21T15:10:50;22.00;99.90
20803;DHT22;10562;-33.856;151.182;2024-02-21T15:13:21;22.00;99.90
20803;DHT22;10562;-33.856;151.182;2024-02-21T15:15:52;22.00;99.90
20803;DHT22;10562;-33.856;151.182;2024-02-21T15:18:22;22.00;99.90